createdAt,value
2023-01-20T00:01:32.730Z,4.47
2023-01-20T00:04:00.221Z,4.40
2023-01-20T00:06:28.122Z,4.10
2023-01-20T00:08:56.541Z,4.70
2023-01-20T00:11:24.309Z,4.43
2023-01-20T00:13:59.352Z,3.97
2023-01-20T00:16:27.568Z,4.90
2023-01-20T00:18:55.127Z,4.73
2023-01-20T00:21:22.620Z,4.47
2023-01-20T00:23:50.398Z,5.03
2023-01-20T00:26:19.642Z,4.57
2023-01-20T00:28:47.797Z,4.27
2023-01-20T00:31:16.764Z,3.97
2023-01-20T00:33:44.497Z,4.97
2023-01-20T00:36:12.856Z,4.50
2023-01-20T00:38:40.447Z,4.23
2023-01-20T00:41:08.161Z,4.17
2023-01-20T00:43:35.690Z,4.33
2023-01-20T00:46:03.773Z,4.33
2023-01-20T00:48:31.384Z,4.13
2023-01-20T00:50:58.974Z,4.40
2023-01-20T00:53:26.403Z,4.07
2023-01-20T00:55:53.908Z,4.13
2023-01-20T00:58:21.331Z,4.30
2023-01-20T01:00:49.326Z,4.40
2023-01-20T01:03:17.127Z,4.30
2023-01-20T01:05:45.304Z,4.00
2023-01-20T01:08:12.857Z,4.37
2023-01-20T01:10:40.774Z,4.20
2023-01-20T01:13:08.600Z,3.97
2023-01-20T01:15:36.081Z,4.27
2023-01-20T01:18:03.642Z,4.20
2023-01-20T01:20:31.080Z,4.17
2023-01-20T01:22:58.599Z,3.90
2023-01-20T01:25:26.103Z,4.13
2023-01-20T01:27:53.547Z,4.30
2023-01-20T01:30:21.086Z,4.43
2023-01-20T01:32:48.637Z,4.43
2023-01-20T01:35:16.503Z,4.47
2023-01-20T01:37:44.167Z,4.27
2023-01-20T01:40:11.873Z,4.50
2023-01-20T01:42:41.340Z,4.77
2023-01-20T01:45:13.848Z,4.47
2023-01-20T01:47:41.509Z,4.37
2023-01-20T01:50:09.925Z,4.03
2023-01-20T01:52:37.361Z,4.20
2023-01-20T01:55:05.028Z,4.07
2023-01-20T01:57:32.821Z,4.40
2023-01-20T02:00:00.353Z,3.97
2023-01-20T02:02:28.105Z,4.60
2023-01-20T02:04:55.602Z,4.90
2023-01-20T02:07:23.090Z,4.50
2023-01-20T02:09:50.572Z,4.20
2023-01-20T02:12:21.319Z,4.30
2023-01-20T02:14:53.344Z,4.43
2023-01-20T02:17:29.449Z,4.70
2023-01-20T02:20:12.865Z,4.53
2023-01-20T02:22:40.272Z,4.43
2023-01-20T02:25:23.611Z,4.10
2023-01-20T02:27:51.047Z,4.50
2023-01-20T02:30:18.597Z,4.30
2023-01-20T02:32:54.832Z,4.30
2023-01-20T02:35:25.298Z,4.93
2023-01-20T02:37:59.606Z,4.73
2023-01-20T02:40:31.442Z,5.07
2023-01-20T02:43:11.355Z,5.07
2023-01-20T02:45:44.415Z,4.70
2023-01-20T02:48:21.164Z,5.00
2023-01-20T02:50:59.182Z,4.97
2023-01-20T02:53:27.598Z,4.70
2023-01-20T02:55:55.510Z,4.40
2023-01-20T02:58:25.697Z,5.33
2023-01-20T03:00:56.575Z,5.07
2023-01-20T03:03:26.726Z,5.20
2023-01-20T03:05:56.610Z,5.13
2023-01-20T03:08:25.739Z,5.37
2023-01-20T03:10:55.443Z,5.33
2023-01-20T03:13:26.312Z,5.13
2023-01-20T03:15:53.740Z,6.07
2023-01-20T03:18:23.535Z,6.20
2023-01-20T03:20:51.065Z,6.63
2023-01-20T03:23:18.656Z,7.23
2023-01-20T03:25:46.862Z,7.03
2023-01-20T03:28:14.390Z,6.50
2023-01-20T03:30:41.948Z,6.60
2023-01-20T03:33:09.720Z,7.30
2023-01-20T03:35:37.499Z,6.57
2023-01-20T03:38:05.059Z,6.57
2023-01-20T03:40:37.438Z,6.70
2023-01-20T03:43:28.165Z,7.57
2023-01-20T03:46:01.087Z,6.33
2023-01-20T03:49:03.839Z,6.67
2023-01-20T03:51:54.428Z,6.20
2023-01-20T03:54:27.064Z,6.97
2023-01-20T03:57:04.271Z,6.73
2023-01-20T03:59:36.404Z,6.90
2023-01-20T04:02:07.050Z,6.97
2023-01-20T04:15:48.711Z,6.43
2023-01-20T04:18:17.867Z,7.17
2023-01-20T04:20:46.508Z,6.80
2023-01-20T04:23:34.165Z,6.73
2023-01-20T04:26:01.522Z,7.67
2023-01-20T04:28:30.046Z,6.17
2023-01-20T04:30:57.460Z,7.10
2023-01-20T04:33:25.080Z,6.70
2023-01-20T04:35:52.451Z,6.97
2023-01-20T04:38:19.819Z,6.73
2023-01-20T04:40:47.143Z,6.83
2023-01-20T04:43:14.511Z,6.37
2023-01-20T04:45:42.352Z,7.47
2023-01-20T04:48:09.827Z,6.37
2023-01-20T04:50:40.684Z,6.67
2023-01-20T04:53:08.344Z,6.53
2023-01-20T04:55:35.649Z,6.47
2023-01-20T04:58:03.000Z,7.17
2023-01-20T05:00:30.410Z,6.70
2023-01-20T05:02:59.025Z,6.97
2023-01-20T05:05:26.451Z,6.50
2023-01-20T05:07:53.888Z,7.10
2023-01-20T05:10:21.398Z,7.00
2023-01-20T05:12:48.785Z,7.00
2023-01-20T05:15:16.573Z,7.13
2023-01-20T05:17:43.977Z,6.93
2023-01-20T05:20:11.699Z,6.77
2023-01-20T05:22:39.031Z,7.03
2023-01-20T05:25:06.667Z,6.20
2023-01-20T05:27:37.059Z,7.60
2023-01-20T05:30:05.100Z,7.33
2023-01-20T05:32:32.571Z,6.80
2023-01-20T05:35:00.090Z,7.20
2023-01-20T05:37:27.442Z,6.30
2023-01-20T05:39:54.735Z,6.83
2023-01-20T05:42:22.913Z,6.73
2023-01-20T05:44:50.318Z,7.03
2023-01-20T05:47:17.834Z,7.70
2023-01-20T05:49:45.171Z,7.00
2023-01-20T05:52:12.562Z,7.00
2023-01-20T05:54:39.944Z,6.80
2023-01-20T05:57:07.271Z,6.97
2023-01-20T05:59:34.706Z,6.90
2023-01-20T06:02:02.031Z,6.80
2023-01-20T06:04:29.407Z,6.27
2023-01-20T06:06:56.738Z,7.00
2023-01-20T06:09:24.109Z,6.70
2023-01-20T06:11:51.801Z,6.87
2023-01-20T06:14:19.128Z,6.97
2023-01-20T06:16:46.467Z,7.57
2023-01-20T06:19:13.797Z,7.53
2023-01-20T06:21:41.166Z,7.33
2023-01-20T06:24:08.628Z,7.27
2023-01-20T06:26:36.054Z,7.07
2023-01-20T06:29:03.399Z,7.23
2023-01-20T06:31:30.771Z,7.40
2023-01-20T06:33:58.187Z,7.70
2023-01-20T06:36:25.673Z,7.30
2023-01-20T06:38:53.164Z,7.10
2023-01-20T06:41:21.218Z,7.73
2023-01-20T06:43:50.194Z,7.10
2023-01-20T06:46:17.752Z,7.57
2023-01-20T06:48:45.728Z,7.70
2023-01-20T06:51:14.744Z,7.43
2023-01-20T06:53:42.597Z,8.37
2023-01-20T06:56:11.356Z,8.10
2023-01-20T06:58:39.275Z,7.07
2023-01-20T07:01:11.622Z,7.93
2023-01-20T07:03:39.078Z,7.73
2023-01-20T07:06:14.751Z,7.13
2023-01-20T07:08:43.432Z,7.50
2023-01-20T07:11:10.912Z,7.83
2023-01-20T07:13:38.315Z,7.73
2023-01-20T07:16:05.886Z,7.37
2023-01-20T07:18:33.243Z,8.63
2023-01-20T07:21:00.691Z,7.27
2023-01-20T07:23:28.603Z,8.33
2023-01-20T07:26:00.107Z,7.87
2023-01-20T07:28:27.659Z,7.20
2023-01-20T07:30:55.462Z,7.83
2023-01-20T07:33:22.874Z,7.47
2023-01-20T07:35:54.249Z,7.57
2023-01-20T07:38:21.697Z,7.37
2023-01-20T07:40:49.119Z,8.27
2023-01-20T07:43:16.455Z,7.63
2023-01-20T07:45:43.984Z,8.30
2023-01-20T07:48:11.341Z,8.37
2023-01-20T07:50:38.676Z,8.13
2023-01-20T07:53:06.060Z,8.60
2023-01-20T07:55:34.100Z,8.27
2023-01-20T07:58:02.248Z,8.90
2023-01-20T08:00:29.598Z,8.83
2023-01-20T08:02:57.045Z,8.70
2023-01-20T08:05:24.373Z,8.63
2023-01-20T08:07:52.542Z,8.37
2023-01-20T08:10:20.018Z,7.43
2023-01-20T08:12:47.355Z,8.07
2023-01-20T08:15:14.907Z,6.77
2023-01-20T08:17:42.338Z,7.33
2023-01-20T08:20:10.076Z,7.07
2023-01-20T08:22:37.383Z,7.57
2023-01-20T08:25:04.804Z,7.07
2023-01-20T08:27:32.234Z,7.10
2023-01-20T08:29:59.582Z,7.83
2023-01-20T08:32:26.975Z,7.20
2023-01-20T08:34:54.989Z,7.00
2023-01-20T08:37:22.638Z,7.40
2023-01-20T08:39:50.065Z,6.80
2023-01-20T08:42:17.363Z,6.90
2023-01-20T08:44:44.820Z,7.17
2023-01-20T08:47:12.579Z,6.90
2023-01-20T08:49:39.985Z,6.97
2023-01-20T08:52:07.363Z,6.77
2023-01-20T08:54:34.723Z,6.37
2023-01-20T08:57:02.099Z,7.00
2023-01-20T08:59:29.429Z,6.87
2023-01-20T09:01:56.745Z,6.27
2023-01-20T09:04:24.097Z,6.20
2023-01-20T09:06:52.809Z,6.00
2023-01-20T09:09:21.230Z,5.90
2023-01-20T09:11:51.985Z,5.60
2023-01-20T09:14:23.800Z,5.80
2023-01-20T09:16:51.281Z,5.97
2023-01-20T09:19:18.766Z,6.30
2023-01-20T09:21:46.259Z,5.73
2023-01-20T09:24:13.713Z,5.60
2023-01-20T09:26:41.114Z,5.67
2023-01-20T09:29:12.813Z,5.37
2023-01-20T09:31:49.835Z,5.60
2023-01-20T09:34:24.588Z,5.50
2023-01-20T09:36:56.015Z,5.97
2023-01-20T09:39:42.625Z,5.73
2023-01-20T09:42:56.387Z,5.83
2023-01-20T09:45:33.034Z,5.67
2023-01-20T09:48:39.155Z,5.53
2023-01-20T09:51:30.862Z,5.47
2023-01-20T09:54:05.040Z,4.63
2023-01-20T09:56:37.398Z,5.17
2023-01-20T09:59:10.305Z,4.60
2023-01-20T10:01:43.355Z,5.03
2023-01-20T10:04:10.813Z,4.87
2023-01-20T10:06:40.995Z,4.60
2023-01-20T10:09:26.837Z,4.23
2023-01-20T10:11:56.960Z,4.20
2023-01-20T10:14:28.873Z,4.60
2023-01-20T10:17:19.735Z,4.93
2023-01-20T10:19:51.637Z,4.63
2023-01-20T10:22:23.883Z,4.47
2023-01-20T10:24:53.037Z,4.23
2023-01-20T10:27:20.383Z,4.40
2023-01-20T10:29:53.860Z,4.37
2023-01-20T10:32:29.242Z,4.00
2023-01-20T10:34:57.937Z,3.87
2023-01-20T10:37:25.307Z,4.43
2023-01-20T10:39:55.426Z,4.70
2023-01-20T10:42:24.793Z,3.90
2023-01-20T10:44:53.043Z,3.97
2023-01-20T10:47:26.332Z,3.90
2023-01-20T10:50:05.979Z,3.93
2023-01-20T10:52:45.593Z,4.07
2023-01-20T10:55:36.264Z,4.07
2023-01-20T10:58:10.754Z,3.60
2023-01-20T11:00:39.972Z,3.70
2023-01-20T11:03:11.078Z,3.90
2023-01-20T11:05:38.783Z,3.90
2023-01-20T11:08:15.282Z,3.97
2023-01-20T11:10:42.613Z,3.57
2023-01-20T11:13:10.924Z,3.80
2023-01-20T11:15:39.596Z,3.97
2023-01-20T11:18:16.244Z,3.53
2023-01-20T11:21:03.964Z,3.77
2023-01-20T11:23:52.190Z,3.70
2023-01-20T11:26:26.198Z,4.00
2023-01-20T11:29:24.631Z,3.73
2023-01-20T11:31:59.674Z,3.43
2023-01-20T11:34:27.618Z,3.80
2023-01-20T11:37:03.934Z,3.80
2023-01-20T11:39:31.337Z,3.60
2023-01-20T11:42:18.153Z,3.80
2023-01-20T11:45:01.139Z,3.50
2023-01-20T11:47:34.262Z,3.07
2023-01-20T11:50:04.708Z,3.00
2023-01-20T11:52:33.143Z,2.97
2023-01-20T11:55:11.272Z,2.90
2023-01-20T11:57:46.578Z,2.50
2023-01-20T12:00:37.301Z,3.00
2023-01-20T12:03:13.729Z,3.00
2023-01-20T12:05:59.421Z,2.63
2023-01-20T12:08:45.014Z,2.40
2023-01-20T12:11:12.696Z,2.27
2023-01-20T12:14:00.886Z,2.43
2023-01-20T12:16:30.746Z,2.10
2023-01-20T12:19:05.361Z,2.40
2023-01-20T12:21:36.217Z,2.17
2023-01-20T12:24:19.471Z,2.50
2023-01-20T12:26:47.099Z,2.60
2023-01-20T12:29:18.316Z,2.97
2023-01-20T12:31:49.064Z,2.67
2023-01-20T12:34:17.906Z,2.57
2023-01-20T12:36:45.359Z,2.93
2023-01-20T12:39:29.959Z,2.77
2023-01-20T12:41:57.886Z,2.90
2023-01-20T12:44:45.633Z,2.80
2023-01-20T12:47:13.111Z,2.77
2023-01-20T12:49:48.929Z,2.80
2023-01-20T12:52:24.391Z,2.77
2023-01-20T12:54:54.700Z,2.77
2023-01-20T12:57:31.177Z,2.90
2023-01-20T13:00:14.160Z,2.77
2023-01-20T13:03:00.370Z,2.73
2023-01-20T13:05:46.431Z,2.33
2023-01-20T13:08:19.801Z,2.43
2023-01-20T13:10:51.488Z,2.33
2023-01-20T13:13:21.945Z,2.70
2023-01-20T13:15:53.724Z,2.50
2023-01-20T13:18:23.947Z,2.40
2023-01-20T13:20:53.673Z,3.13
2023-01-20T13:23:35.418Z,2.50
2023-01-20T13:26:04.517Z,2.40
2023-01-20T13:28:32.422Z,3.17
2023-01-20T13:31:01.002Z,2.80
2023-01-20T13:33:39.259Z,3.40
2023-01-20T13:36:20.533Z,3.07
2023-01-20T13:38:49.212Z,3.63
2023-01-20T13:41:35.379Z,3.20
2023-01-20T13:44:22.722Z,3.20
2023-01-20T13:46:50.316Z,3.37
2023-01-20T13:49:28.691Z,3.60
2023-01-20T13:51:56.108Z,3.43
2023-01-20T13:54:25.071Z,4.00
2023-01-20T13:56:53.044Z,3.60
2023-01-20T13:59:27.513Z,4.10
2023-01-20T14:01:54.848Z,3.17
2023-01-20T14:04:22.600Z,3.83
2023-01-20T14:06:51.347Z,4.40
2023-01-20T14:09:22.514Z,4.10
2023-01-20T14:11:53.655Z,4.33
2023-01-20T14:14:22.605Z,4.50
2023-01-20T14:16:50.576Z,4.83
2023-01-20T14:19:31.972Z,4.73
2023-01-20T14:22:01.884Z,4.77
2023-01-20T14:24:34.306Z,4.47
2023-01-20T14:27:09.807Z,4.30
2023-01-20T14:29:38.097Z,4.10
2023-01-20T14:32:15.146Z,3.97
2023-01-20T14:34:42.540Z,4.20
2023-01-20T14:37:25.799Z,4.40
2023-01-20T14:39:54.993Z,4.00
2023-01-20T14:42:23.366Z,4.27
2023-01-20T14:44:51.706Z,4.27
2023-01-20T14:47:19.639Z,4.17
2023-01-20T14:49:48.276Z,4.13
2023-01-20T14:52:21.776Z,4.60
2023-01-20T14:54:50.046Z,3.63
2023-01-20T14:57:28.565Z,3.90
2023-01-20T15:00:01.979Z,3.90
2023-01-20T15:02:34.360Z,4.03
2023-01-20T15:05:01.995Z,3.97
2023-01-20T15:07:29.436Z,3.83
2023-01-20T15:10:10.063Z,3.57
2023-01-20T15:12:39.660Z,4.43
2023-01-20T15:15:07.059Z,4.10
2023-01-20T15:17:34.425Z,3.60
2023-01-20T15:20:01.708Z,3.90
2023-01-20T15:22:29.084Z,4.17
2023-01-20T15:24:56.470Z,3.87
2023-01-20T15:27:23.843Z,4.03
2023-01-20T15:30:00.487Z,4.20
2023-01-20T15:32:27.891Z,3.90
2023-01-20T15:34:55.276Z,4.60
2023-01-20T15:37:24.483Z,4.27
2023-01-20T15:39:53.767Z,4.37
2023-01-20T15:42:21.165Z,4.53
2023-01-20T15:44:48.548Z,4.13
2023-01-20T15:47:26.052Z,4.60
2023-01-20T15:49:53.501Z,4.50
2023-01-20T15:52:20.951Z,4.80
2023-01-20T15:54:48.305Z,4.53
2023-01-20T15:57:16.653Z,4.53
2023-01-20T15:59:49.793Z,4.60
2023-01-20T16:02:18.477Z,4.77
2023-01-20T16:04:46.544Z,4.40
2023-01-20T16:07:20.927Z,4.33
2023-01-20T16:09:48.627Z,4.47
2023-01-20T16:12:19.319Z,3.83
2023-01-20T16:14:46.718Z,3.87
2023-01-20T16:17:21.496Z,3.63
2023-01-20T16:19:49.761Z,4.13
2023-01-20T16:22:17.426Z,3.67
2023-01-20T16:24:45.163Z,3.53
2023-01-20T16:27:15.590Z,3.83
2023-01-20T16:29:43.198Z,3.60
2023-01-20T16:32:10.551Z,4.20
2023-01-20T16:34:38.081Z,4.10
2023-01-20T16:37:06.379Z,3.87
2023-01-20T16:39:33.830Z,3.97
2023-01-20T16:42:01.207Z,4.13
2023-01-20T16:44:28.523Z,3.50
2023-01-20T16:46:55.977Z,4.00
2023-01-20T16:49:23.266Z,4.17
2023-01-20T16:51:50.617Z,4.70
2023-01-20T16:54:17.958Z,3.97
2023-01-20T16:56:45.308Z,4.07
2023-01-20T16:59:13.136Z,3.60
2023-01-20T17:01:41.937Z,4.30
2023-01-20T17:04:10.845Z,4.17
2023-01-20T17:06:38.205Z,4.13
2023-01-20T17:09:05.868Z,4.20
2023-01-20T17:11:34.813Z,3.93
2023-01-20T17:14:03.841Z,4.00
2023-01-20T17:16:31.615Z,3.80
2023-01-20T17:18:59.751Z,3.60
2023-01-20T17:21:28.530Z,3.93
2023-01-20T17:23:57.501Z,3.70
2023-01-20T17:26:25.700Z,3.73
2023-01-20T17:28:56.578Z,4.40
2023-01-20T17:31:24.251Z,3.93
2023-01-20T17:33:52.016Z,3.90
2023-01-20T17:36:19.484Z,3.77
2023-01-20T17:38:46.899Z,4.13
2023-01-20T17:41:14.692Z,4.53
2023-01-20T17:43:43.745Z,4.00
2023-01-20T17:46:18.962Z,3.73
2023-01-20T17:48:46.745Z,4.57
2023-01-20T17:51:15.352Z,4.17
2023-01-20T17:53:43.657Z,3.80
2023-01-20T17:56:13.592Z,4.00
2023-01-20T17:58:42.167Z,3.90
2023-01-20T18:01:13.594Z,4.30
2023-01-20T18:03:42.981Z,4.30
2023-01-20T18:06:14.461Z,3.73
2023-01-20T18:08:42.680Z,4.30
2023-01-20T18:11:11.040Z,4.03
2023-01-20T18:13:38.686Z,3.63
2023-01-20T18:16:07.153Z,4.03
2023-01-20T18:18:34.614Z,4.40
2023-01-20T18:21:09.379Z,3.83
2023-01-20T18:23:39.017Z,4.70
2023-01-20T18:26:07.360Z,4.17
2023-01-20T18:28:34.941Z,4.13
2023-01-20T18:31:08.047Z,4.27
2023-01-20T18:33:39.596Z,4.20
2023-01-20T18:36:08.037Z,4.87
2023-01-20T18:38:35.918Z,4.63
2023-01-20T18:41:03.793Z,4.27
2023-01-20T18:43:31.350Z,4.87
2023-01-20T18:45:58.792Z,4.47
2023-01-20T18:48:26.614Z,4.87
2023-01-20T18:50:59.772Z,4.90
2023-01-20T18:53:30.481Z,4.80
2023-01-20T18:56:01.512Z,4.57
2023-01-20T18:58:29.408Z,4.57
2023-01-20T19:01:03.608Z,5.03
2023-01-20T19:03:31.267Z,4.80
2023-01-20T19:06:05.733Z,4.80
2023-01-20T19:08:33.242Z,4.90
2023-01-20T19:11:01.662Z,5.33
2023-01-20T19:13:28.999Z,5.73
2023-01-20T19:15:56.622Z,6.17
2023-01-20T19:18:24.479Z,5.77
2023-01-20T19:20:52.088Z,5.70
2023-01-20T19:23:19.824Z,4.80
2023-01-20T19:25:48.835Z,6.00
2023-01-20T19:28:16.373Z,5.80
2023-01-20T19:30:43.884Z,5.70
2023-01-20T19:33:12.235Z,5.27
2023-01-20T19:35:41.991Z,5.77
2023-01-20T19:38:09.804Z,5.73
2023-01-20T19:40:40.045Z,6.07
2023-01-20T19:43:07.399Z,5.53
2023-01-20T19:45:45.471Z,5.73
2023-01-20T19:48:13.436Z,5.73
2023-01-20T19:50:41.903Z,5.43
2023-01-20T19:53:09.208Z,5.77
2023-01-20T19:55:36.509Z,5.43
2023-01-20T19:58:03.937Z,5.20
2023-01-20T20:00:31.316Z,5.47
2023-01-20T20:02:58.766Z,5.90
2023-01-20T20:05:26.149Z,6.37
2023-01-20T20:07:53.592Z,5.50
2023-01-20T20:10:21.139Z,5.87
2023-01-20T20:12:48.473Z,5.87
2023-01-20T20:15:15.854Z,6.40
2023-01-20T20:17:43.333Z,6.40
2023-01-20T20:20:11.093Z,6.47
2023-01-20T20:22:38.528Z,7.03
2023-01-20T20:25:09.892Z,6.80
2023-01-20T20:27:38.568Z,6.30
2023-01-20T20:30:06.949Z,6.37
2023-01-20T20:32:34.421Z,6.17
2023-01-20T20:35:01.804Z,6.43
2023-01-20T20:37:29.247Z,6.53
2023-01-20T20:39:56.605Z,7.53
2023-01-20T20:42:24.035Z,6.73
2023-01-20T20:44:51.356Z,6.70
2023-01-20T20:47:18.776Z,6.43
2023-01-20T20:49:46.478Z,8.07
2023-01-20T20:52:13.910Z,6.80
2023-01-20T20:54:41.220Z,6.77
2023-01-20T20:57:08.599Z,6.90
2023-01-20T20:59:38.765Z,7.13
2023-01-20T21:02:13.789Z,8.00
2023-01-20T21:04:41.329Z,7.20
2023-01-20T21:07:08.719Z,7.30
2023-01-20T21:09:36.530Z,7.40
2023-01-20T21:12:03.845Z,7.53
2023-01-20T21:14:31.235Z,7.63
2023-01-20T21:16:58.535Z,7.07
2023-01-20T21:19:26.035Z,7.73
2023-01-20T21:21:53.756Z,7.20
2023-01-20T21:24:25.937Z,7.47
2023-01-20T21:26:53.517Z,7.43
2023-01-20T21:29:21.056Z,7.03
2023-01-20T21:31:50.335Z,6.90
2023-01-20T21:34:17.930Z,6.87
2023-01-20T21:36:45.622Z,7.67
2023-01-20T21:39:13.829Z,6.93
2023-01-20T21:41:41.745Z,6.80
2023-01-20T21:44:32.845Z,7.27
2023-01-20T21:47:04.562Z,6.83
2023-01-20T21:49:50.914Z,7.60
2023-01-20T21:52:38.479Z,6.80
2023-01-20T21:55:06.835Z,7.37
2023-01-20T21:57:34.481Z,6.80
2023-01-20T22:00:02.569Z,6.60
2023-01-20T22:02:38.922Z,6.80
2023-01-20T22:05:06.581Z,7.13
2023-01-20T22:07:33.926Z,6.60
2023-01-20T22:10:01.438Z,6.90
2023-01-20T22:12:33.692Z,7.23
2023-01-20T22:15:03.251Z,6.60
2023-01-20T22:17:30.878Z,6.70
2023-01-20T22:19:58.265Z,6.67
2023-01-20T22:22:25.617Z,7.00
2023-01-20T22:24:53.588Z,6.37
2023-01-20T22:27:20.995Z,6.50
2023-01-20T22:29:48.389Z,6.67
2023-01-20T22:32:15.723Z,7.23
2023-01-20T22:34:43.193Z,7.27
2023-01-20T22:37:10.528Z,7.43
2023-01-20T22:39:37.848Z,6.80
2023-01-20T22:42:05.302Z,7.20
2023-01-20T22:44:32.608Z,6.87
2023-01-20T22:46:59.974Z,6.93
2023-01-20T22:49:28.479Z,7.17
2023-01-20T22:51:55.906Z,7.07
2023-01-20T22:54:23.465Z,7.20
2023-01-20T22:56:50.789Z,7.40
2023-01-20T22:59:18.164Z,6.77
2023-01-20T23:01:45.484Z,6.80
2023-01-20T23:04:12.908Z,6.77
2023-01-20T23:06:40.283Z,7.20
2023-01-20T23:09:09.012Z,6.97
2023-01-20T23:11:38.464Z,7.03
2023-01-20T23:14:06.082Z,6.87
2023-01-20T23:16:33.675Z,6.83
2023-01-20T23:19:01.370Z,6.83
2023-01-20T23:21:28.966Z,6.97
2023-01-20T23:23:56.474Z,6.93
2023-01-20T23:26:25.002Z,5.97
2023-01-20T23:28:53.687Z,7.20
2023-01-20T23:31:21.162Z,7.03
2023-01-20T23:33:48.639Z,7.30
2023-01-20T23:36:16.026Z,7.13
2023-01-20T23:38:44.405Z,7.40
2023-01-20T23:41:12.652Z,6.10
2023-01-20T23:43:40.984Z,6.90
2023-01-20T23:46:08.884Z,7.27
2023-01-20T23:48:36.800Z,7.30
2023-01-20T23:51:06.067Z,6.73
2023-01-20T23:53:34.047Z,7.47
2023-01-20T23:56:05.645Z,7.37
2023-01-20T23:58:33.411Z,7.17
